createdAt,value
2017-12-22T00:02:20.753Z,177.30
2017-12-22T00:04:48.618Z,147.53
2017-12-22T00:07:16.173Z,205.13
2017-12-22T00:09:43.864Z,137.77
2017-12-22T00:12:11.426Z,215.33
2017-12-22T00:14:39.016Z,258.40
2017-12-22T00:17:06.586Z,132.43
2017-12-22T00:19:34.186Z,159.33
2017-12-22T00:22:01.707Z,284.07
2017-12-22T00:24:29.721Z,211.97
2017-12-22T00:26:57.491Z,277.50
2017-12-22T00:29:25.083Z,270.47
2017-12-22T00:31:52.956Z,251.63
2017-12-22T00:34:20.616Z,342.53
2017-12-22T00:36:48.218Z,344.73
2017-12-22T00:39:15.820Z,279.27
2017-12-22T00:41:43.340Z,246.37
2017-12-22T00:44:10.927Z,342.10
2017-12-22T00:46:38.525Z,240.20
2017-12-22T00:49:06.094Z,344.30
2017-12-22T00:51:33.688Z,287.73
2017-12-22T00:54:01.302Z,309.80
2017-12-22T00:56:28.942Z,291.50
2017-12-22T00:58:56.761Z,236.83
2017-12-22T01:01:24.351Z,283.00
2017-12-22T01:03:51.944Z,292.30
2017-12-22T01:06:19.515Z,385.40
2017-12-22T01:08:47.103Z,205.07
2017-12-22T01:11:15.040Z,316.00
2017-12-22T01:13:42.815Z,296.10
2017-12-22T01:16:16.062Z,296.20
2017-12-22T01:18:49.082Z,229.00
2017-12-22T01:21:16.656Z,192.00
2017-12-22T01:23:44.184Z,223.80
2017-12-22T01:26:11.753Z,249.87
2017-12-22T01:28:39.654Z,316.33
2017-12-22T01:31:07.274Z,245.33
2017-12-22T01:33:35.082Z,197.23
2017-12-22T01:36:02.721Z,251.63
2017-12-22T01:38:30.287Z,254.30
2017-12-22T01:40:58.234Z,187.67
2017-12-22T01:43:25.765Z,208.57
2017-12-22T01:45:53.327Z,295.57
2017-12-22T01:48:21.229Z,276.77
2017-12-22T01:50:48.791Z,273.23
2017-12-22T01:53:16.476Z,357.90
2017-12-22T01:55:44.064Z,417.43
2017-12-22T01:58:11.587Z,325.97
2017-12-22T02:00:39.508Z,343.37
2017-12-22T02:03:07.036Z,395.97
2017-12-22T02:05:34.595Z,333.93
2017-12-22T02:08:02.148Z,470.47
2017-12-22T02:10:29.734Z,335.60
2017-12-22T02:12:57.283Z,261.97
2017-12-22T02:15:24.833Z,278.47
2017-12-22T02:17:52.424Z,474.03
2017-12-22T02:20:19.986Z,377.40
2017-12-22T02:22:47.546Z,328.73
2017-12-22T02:25:15.337Z,273.73
2017-12-22T02:27:42.988Z,269.77
2017-12-22T02:30:10.521Z,178.00
2017-12-22T02:32:38.256Z,155.20
2017-12-22T02:35:05.819Z,431.40
2017-12-22T02:37:33.609Z,267.13
2017-12-22T02:40:01.204Z,183.03
2017-12-22T02:42:28.770Z,139.03
2017-12-22T02:44:56.753Z,391.57
2017-12-22T02:47:24.300Z,145.17
2017-12-22T02:49:51.853Z,171.57
2017-12-22T02:52:19.475Z,215.53
2017-12-22T02:54:47.042Z,219.40
2017-12-22T02:57:14.809Z,99.50
2017-12-22T02:59:42.428Z,151.70
2017-12-22T03:02:10.005Z,110.10
2017-12-22T03:04:37.734Z,105.53
2017-12-22T03:07:05.322Z,197.83
2017-12-22T03:09:33.080Z,387.10
2017-12-22T03:12:00.696Z,203.80
2017-12-22T03:14:28.266Z,139.03
2017-12-22T03:16:55.807Z,282.87
2017-12-22T03:19:23.430Z,188.50
2017-12-22T03:21:50.974Z,165.93
2017-12-22T03:24:18.495Z,195.70
2017-12-22T03:26:46.087Z,387.13
2017-12-22T03:29:13.678Z,284.87
2017-12-22T03:31:41.265Z,325.57
2017-12-22T03:34:08.899Z,443.87
2017-12-22T03:36:36.453Z,260.53
2017-12-22T03:39:04.164Z,480.67
2017-12-22T03:41:31.763Z,486.20
2017-12-22T03:43:59.332Z,448.07
2017-12-22T03:46:26.918Z,469.53
2017-12-22T03:48:54.661Z,608.80
2017-12-22T03:51:22.387Z,343.70
2017-12-22T03:53:51.886Z,235.87
2017-12-22T03:56:19.841Z,338.47
2017-12-22T03:58:47.376Z,274.13
2017-12-22T04:01:14.929Z,585.30
2017-12-22T04:03:42.514Z,500.87
2017-12-22T04:06:11.553Z,526.03
2017-12-22T04:08:39.339Z,502.27
2017-12-22T04:11:06.917Z,398.37
2017-12-22T04:13:34.446Z,454.43
2017-12-22T04:16:01.968Z,581.07
2017-12-22T04:18:29.913Z,526.10
2017-12-22T04:20:57.511Z,574.67
2017-12-22T04:23:25.076Z,619.60
2017-12-22T04:25:52.762Z,672.60
2017-12-22T04:28:20.752Z,730.90
2017-12-22T04:30:48.343Z,636.87
2017-12-22T04:33:15.993Z,511.83
2017-12-22T04:35:43.595Z,774.10
2017-12-22T04:38:11.176Z,582.20
2017-12-22T04:40:38.730Z,657.60
2017-12-22T04:43:06.268Z,405.57
2017-12-22T04:45:34.368Z,385.47
2017-12-22T04:48:01.896Z,346.00
2017-12-22T04:50:29.425Z,222.57
2017-12-22T04:52:57.017Z,215.43
2017-12-22T04:55:24.573Z,237.90
2017-12-22T04:57:52.120Z,200.87
2017-12-22T05:00:20.255Z,451.83
2017-12-22T05:02:47.874Z,284.17
2017-12-22T05:05:15.432Z,208.27
2017-12-22T05:07:43.381Z,249.40
2017-12-22T05:10:11.351Z,537.77
2017-12-22T05:12:38.930Z,126.00
2017-12-22T05:15:06.655Z,450.23
2017-12-22T05:17:34.331Z,272.83
2017-12-22T05:20:01.858Z,144.07
2017-12-22T05:22:29.438Z,296.87
2017-12-22T05:24:57.595Z,458.13
2017-12-22T05:27:25.187Z,373.57
2017-12-22T05:29:52.751Z,301.30
2017-12-22T05:32:20.296Z,256.60
2017-12-22T05:34:48.083Z,285.17
2017-12-22T05:37:15.635Z,339.90
2017-12-22T05:39:43.151Z,549.47
2017-12-22T05:42:11.055Z,200.27
2017-12-22T05:44:38.618Z,170.03
2017-12-22T05:47:06.178Z,395.70
2017-12-22T05:49:33.804Z,190.83
2017-12-22T05:52:01.391Z,187.20
2017-12-22T05:54:29.027Z,165.67
2017-12-22T05:56:56.595Z,285.73
2017-12-22T05:59:24.171Z,340.03
2017-12-22T06:01:51.728Z,279.30
2017-12-22T06:04:19.248Z,645.73
2017-12-22T06:06:46.820Z,504.13
2017-12-22T06:09:14.378Z,136.33
2017-12-22T06:11:41.951Z,181.30
2017-12-22T06:14:09.762Z,195.70
2017-12-22T06:16:37.665Z,258.40
2017-12-22T06:19:05.230Z,328.30
2017-12-22T06:21:32.789Z,145.20
2017-12-22T06:24:00.681Z,246.20
2017-12-22T06:26:28.208Z,340.40
2017-12-22T06:28:55.761Z,362.53
2017-12-22T06:31:23.336Z,356.00
2017-12-22T06:33:50.907Z,453.60
2017-12-22T06:36:18.433Z,168.57
2017-12-22T06:38:46.521Z,387.53
2017-12-22T06:41:14.105Z,351.13
2017-12-22T06:43:41.674Z,347.97
2017-12-22T06:46:09.266Z,218.00
2017-12-22T06:48:36.886Z,176.07
2017-12-22T06:51:04.458Z,259.00
2017-12-22T06:53:32.107Z,211.70
2017-12-22T06:55:59.666Z,205.47
2017-12-22T06:58:27.197Z,325.03
2017-12-22T07:00:54.945Z,156.23
2017-12-22T07:03:22.574Z,282.73
2017-12-22T07:05:50.150Z,185.07
2017-12-22T07:08:17.681Z,275.20
2017-12-22T07:10:46.150Z,154.70
2017-12-22T07:13:13.710Z,221.30
2017-12-22T07:15:41.323Z,167.77
2017-12-22T07:18:08.839Z,315.23
2017-12-22T07:20:36.840Z,169.33
2017-12-22T07:23:04.415Z,195.93
2017-12-22T07:25:31.951Z,179.70
2017-12-22T07:27:59.581Z,177.80
2017-12-22T07:30:27.137Z,217.40
2017-12-22T07:32:54.865Z,326.40
2017-12-22T07:35:22.757Z,177.90
2017-12-22T07:37:50.416Z,185.10
2017-12-22T07:40:17.992Z,226.67
2017-12-22T07:42:45.605Z,276.60
2017-12-22T07:45:13.232Z,127.33
2017-12-22T07:47:40.802Z,180.80
2017-12-22T07:50:08.364Z,327.93
2017-12-22T07:52:35.927Z,174.67
2017-12-22T07:55:03.448Z,268.07
2017-12-22T07:57:31.032Z,128.13
2017-12-22T07:59:58.590Z,151.37
2017-12-22T08:02:26.218Z,180.13
2017-12-22T08:04:53.782Z,233.57
2017-12-22T08:07:21.320Z,150.10
2017-12-22T08:09:48.888Z,170.00
2017-12-22T08:12:16.470Z,125.73
2017-12-22T08:14:43.999Z,117.90
2017-12-22T08:17:11.539Z,94.53
2017-12-22T08:19:39.129Z,111.53
2017-12-22T08:22:06.707Z,98.47
2017-12-22T08:24:34.649Z,75.90
2017-12-22T08:27:02.210Z,109.37
2017-12-22T08:29:29.786Z,133.50
2017-12-22T08:31:57.384Z,81.07
2017-12-22T08:34:24.908Z,77.17
2017-12-22T08:36:52.474Z,88.27
2017-12-22T08:39:20.062Z,153.30
2017-12-22T08:41:47.630Z,115.73
2017-12-22T08:44:15.241Z,178.77
2017-12-22T08:46:42.764Z,161.90
2017-12-22T08:49:10.371Z,193.37
2017-12-22T08:51:38.094Z,201.30
2017-12-22T08:54:05.628Z,162.50
2017-12-22T08:56:33.167Z,223.90
2017-12-22T08:59:00.732Z,126.93
2017-12-22T09:01:28.318Z,137.97
2017-12-22T09:03:55.836Z,101.20
2017-12-22T09:06:23.423Z,232.73
2017-12-22T09:08:50.990Z,223.53
2017-12-22T09:11:18.813Z,208.87
2017-12-22T09:13:46.349Z,126.00
2017-12-22T09:16:13.953Z,209.93
2017-12-22T09:18:41.736Z,163.47
2017-12-22T09:21:09.269Z,123.67
2017-12-22T09:23:36.922Z,154.17
2017-12-22T09:26:04.535Z,187.13
2017-12-22T09:28:32.107Z,145.10
2017-12-22T09:30:59.661Z,126.00
2017-12-22T09:33:27.579Z,65.83
2017-12-22T09:35:55.143Z,135.53
2017-12-22T09:38:22.702Z,71.07
2017-12-22T09:40:50.320Z,166.60
2017-12-22T09:43:17.911Z,117.93
2017-12-22T09:45:45.666Z,91.60
2017-12-22T09:48:13.699Z,135.07
2017-12-22T09:50:41.232Z,89.07
2017-12-22T09:53:08.767Z,159.70
2017-12-22T09:55:36.344Z,124.87
2017-12-22T09:58:03.864Z,142.33
2017-12-22T10:00:31.391Z,120.00
2017-12-22T10:02:59.002Z,42.63
2017-12-22T10:05:26.571Z,121.73
2017-12-22T10:07:54.125Z,117.03
2017-12-22T10:10:21.678Z,71.10
2017-12-22T10:12:49.581Z,322.73
2017-12-22T10:15:17.101Z,274.40
2017-12-22T10:17:44.699Z,321.27
2017-12-22T10:20:12.261Z,358.63
2017-12-22T10:22:39.814Z,162.53
2017-12-22T10:25:07.394Z,219.13
2017-12-22T10:27:34.916Z,128.73
2017-12-22T10:30:02.542Z,252.30
2017-12-22T10:32:30.105Z,137.60
2017-12-22T10:34:57.669Z,184.37
2017-12-22T10:37:25.204Z,173.67
2017-12-22T10:39:52.767Z,89.97
2017-12-22T10:42:20.339Z,227.63
2017-12-22T10:44:47.903Z,122.20
2017-12-22T10:47:15.478Z,88.70
2017-12-22T10:49:43.001Z,171.47
2017-12-22T10:52:10.623Z,161.37
2017-12-22T10:54:38.415Z,111.97
2017-12-22T10:57:05.932Z,81.60
2017-12-22T10:59:33.809Z,152.30
2017-12-22T11:02:01.338Z,225.80
2017-12-22T11:04:28.904Z,205.97
2017-12-22T11:06:56.475Z,202.80
2017-12-22T11:09:24.030Z,91.53
2017-12-22T11:11:51.599Z,197.20
2017-12-22T11:14:19.116Z,72.77
2017-12-22T11:16:46.694Z,135.67
2017-12-22T11:19:14.278Z,213.73
2017-12-22T11:21:41.858Z,202.97
2017-12-22T11:24:09.418Z,223.57
2017-12-22T11:26:37.010Z,287.63
2017-12-22T11:29:04.568Z,388.27
2017-12-22T11:31:32.123Z,260.33
2017-12-22T11:33:59.690Z,174.97
2017-12-22T11:36:27.308Z,308.00
2017-12-22T11:38:54.924Z,246.73
2017-12-22T11:41:22.714Z,317.70
2017-12-22T11:43:50.395Z,108.97
2017-12-22T11:46:18.329Z,108.23
2017-12-22T11:48:45.895Z,128.33
2017-12-22T11:51:13.512Z,91.43
2017-12-22T11:53:41.101Z,123.57
2017-12-22T11:56:08.677Z,42.47
2017-12-22T11:58:36.235Z,156.30
2017-12-22T12:01:04.141Z,75.10
2017-12-22T12:03:31.787Z,27.97
2017-12-22T12:05:59.308Z,18.60
2017-12-22T12:08:26.844Z,32.80
2017-12-22T12:10:54.363Z,68.50
2017-12-22T12:13:21.901Z,24.33
2017-12-22T12:15:49.488Z,56.57
2017-12-22T12:18:17.017Z,79.93
2017-12-22T12:20:44.955Z,47.27
2017-12-22T12:23:12.467Z,185.53
2017-12-22T12:25:40.131Z,107.33
2017-12-22T12:28:07.724Z,99.43
2017-12-22T12:30:35.507Z,37.37
2017-12-22T12:33:03.039Z,72.43
2017-12-22T12:35:30.588Z,179.30
2017-12-22T12:37:58.199Z,33.47
2017-12-22T12:40:25.788Z,68.90
2017-12-22T12:42:53.308Z,21.03
2017-12-22T12:45:20.940Z,38.20
2017-12-22T12:47:48.507Z,19.03
2017-12-22T12:50:16.188Z,43.07
2017-12-22T12:52:43.713Z,91.77
2017-12-22T12:55:11.272Z,19.03
2017-12-22T12:57:38.867Z,20.93
2017-12-22T13:00:06.427Z,29.10
2017-12-22T13:02:34.403Z,65.40
2017-12-22T13:05:01.958Z,69.17
2017-12-22T13:07:29.517Z,46.47
2017-12-22T13:09:57.508Z,61.47
2017-12-22T13:12:25.078Z,51.13
2017-12-22T13:14:52.638Z,52.40
2017-12-22T13:17:20.226Z,35.87
2017-12-22T13:19:47.779Z,43.50
2017-12-22T13:22:15.581Z,24.83
2017-12-22T13:24:43.130Z,27.67
2017-12-22T13:27:10.711Z,16.90
2017-12-22T13:29:38.228Z,15.30
2017-12-22T13:32:05.820Z,18.13
2017-12-22T13:34:33.424Z,26.70
2017-12-22T13:37:01.166Z,18.27
2017-12-22T13:39:28.778Z,14.93
2017-12-22T13:41:56.330Z,15.80
2017-12-22T13:44:24.089Z,18.93
2017-12-22T13:46:51.665Z,19.80
2017-12-22T13:49:19.209Z,17.00
2017-12-22T13:51:46.751Z,18.57
2017-12-22T13:54:14.294Z,16.77
2017-12-22T13:56:42.099Z,18.17
2017-12-22T13:59:09.779Z,22.87
2017-12-22T14:01:37.323Z,57.17
2017-12-22T14:04:05.427Z,27.17
2017-12-22T14:06:32.985Z,54.93
2017-12-22T14:09:00.662Z,87.67
2017-12-22T14:11:28.250Z,83.57
2017-12-22T14:13:55.764Z,74.13
2017-12-22T14:16:23.508Z,44.90
2017-12-22T14:18:51.178Z,58.70
2017-12-22T14:21:18.770Z,40.17
2017-12-22T14:23:46.317Z,42.07
2017-12-22T14:26:13.836Z,47.43
2017-12-22T14:28:41.818Z,66.70
2017-12-22T14:31:09.367Z,55.13
2017-12-22T14:33:36.926Z,50.13
2017-12-22T14:36:04.514Z,36.13
2017-12-22T14:38:32.070Z,46.77
2017-12-22T14:40:59.679Z,85.10
2017-12-22T14:43:27.230Z,69.93
2017-12-22T14:45:54.770Z,122.27
2017-12-22T14:48:22.749Z,63.70
2017-12-22T14:50:50.530Z,82.13
2017-12-22T14:53:18.070Z,123.20
2017-12-22T14:55:45.641Z,51.30
2017-12-22T14:58:13.156Z,28.50
2017-12-22T15:00:40.728Z,56.93
2017-12-22T15:03:08.252Z,39.20
2017-12-22T15:05:35.807Z,46.60
2017-12-22T15:08:03.909Z,41.90
2017-12-22T15:10:31.649Z,59.53
2017-12-22T15:12:59.433Z,119.70
2017-12-22T15:15:27.059Z,94.80
2017-12-22T15:17:54.593Z,112.80
2017-12-22T15:20:22.155Z,112.27
2017-12-22T15:22:49.730Z,59.30
2017-12-22T15:25:17.297Z,115.97
2017-12-22T15:27:44.901Z,66.20
2017-12-22T15:30:12.426Z,96.57
2017-12-22T15:32:40.023Z,97.40
2017-12-22T15:35:07.614Z,163.40
2017-12-22T15:37:35.175Z,243.77
2017-12-22T15:40:02.807Z,176.57
2017-12-22T15:42:30.502Z,189.57
2017-12-22T15:44:58.249Z,192.77
2017-12-22T15:47:25.940Z,114.67
2017-12-22T15:49:53.551Z,113.77
2017-12-22T15:52:21.119Z,108.13
2017-12-22T15:54:48.686Z,150.67
2017-12-22T15:57:16.301Z,116.43
2017-12-22T15:59:43.877Z,189.67
2017-12-22T16:02:11.706Z,147.67
2017-12-22T16:04:39.734Z,184.70
2017-12-22T16:07:07.255Z,97.63
2017-12-22T16:09:34.783Z,114.23
2017-12-22T16:12:02.374Z,212.23
2017-12-22T16:14:30.186Z,153.90
2017-12-22T16:16:57.760Z,309.93
2017-12-22T16:19:25.760Z,134.10
2017-12-22T16:21:53.289Z,88.87
2017-12-22T16:24:20.851Z,154.60
2017-12-22T16:26:48.820Z,126.47
2017-12-22T16:29:16.422Z,187.30
2017-12-22T16:31:43.943Z,134.23
2017-12-22T16:34:11.554Z,178.17
2017-12-22T16:36:39.127Z,162.80
2017-12-22T16:39:06.706Z,169.00
2017-12-22T16:41:34.632Z,178.33
2017-12-22T16:44:02.157Z,179.17
2017-12-22T16:46:29.718Z,140.77
2017-12-22T16:48:57.329Z,99.90
2017-12-22T16:51:24.986Z,113.90
2017-12-22T16:53:52.513Z,81.03
2017-12-22T16:56:20.103Z,180.40
2017-12-22T16:58:47.633Z,48.27
2017-12-22T17:01:15.612Z,48.23
2017-12-22T17:03:43.206Z,67.80
2017-12-22T17:06:10.962Z,54.17
2017-12-22T17:08:38.988Z,51.50
2017-12-22T17:11:06.803Z,123.77
2017-12-22T17:13:34.343Z,122.20
2017-12-22T17:16:01.898Z,139.63
2017-12-22T17:18:29.502Z,100.83
2017-12-22T17:20:57.034Z,162.53
2017-12-22T17:23:24.592Z,109.53
2017-12-22T17:25:52.140Z,167.00
2017-12-22T17:28:19.666Z,243.97
2017-12-22T17:30:47.283Z,255.57
2017-12-22T17:33:14.811Z,203.80
2017-12-22T17:35:42.519Z,99.20
2017-12-22T17:38:10.111Z,273.20
2017-12-22T17:40:37.650Z,313.53
2017-12-22T17:43:05.191Z,191.87
2017-12-22T17:45:32.724Z,355.80
2017-12-22T17:48:00.318Z,356.23
2017-12-22T17:50:27.891Z,320.10
2017-12-22T17:52:55.518Z,306.40
2017-12-22T17:55:23.048Z,225.93
2017-12-22T17:57:50.625Z,271.37
2017-12-22T18:00:18.209Z,209.30
2017-12-22T18:02:45.788Z,238.57
2017-12-22T18:05:13.366Z,219.03
2017-12-22T18:07:40.916Z,292.53
2017-12-22T18:10:08.909Z,228.53
2017-12-22T18:12:36.544Z,181.17
2017-12-22T18:15:04.220Z,155.20
2017-12-22T18:17:31.914Z,230.17
2017-12-22T18:19:59.589Z,222.47
2017-12-22T18:22:27.265Z,114.93
2017-12-22T18:24:55.145Z,279.23
2017-12-22T18:27:22.698Z,72.03
2017-12-22T18:29:50.228Z,141.53
2017-12-22T18:32:18.722Z,213.50
2017-12-22T18:34:46.262Z,416.60
2017-12-22T18:37:13.788Z,303.90
2017-12-22T18:39:41.373Z,537.50
2017-12-22T18:42:08.901Z,485.60
2017-12-22T18:44:36.427Z,523.03
2017-12-22T18:47:04.027Z,959.03
2017-12-22T18:49:31.663Z,1258.30
2017-12-22T18:51:59.480Z,850.87
2017-12-22T18:54:27.063Z,1933.27
2017-12-22T18:56:54.612Z,374.83
2017-12-22T18:59:22.164Z,1129.80
2017-12-22T19:01:49.700Z,2107.37
2017-12-22T19:04:17.284Z,496.13
2017-12-22T19:06:45.016Z,267.87
2017-12-22T19:09:12.801Z,807.40
2017-12-22T19:11:40.381Z,1517.93
2017-12-22T19:14:07.941Z,768.83
2017-12-22T19:16:35.717Z,140.40
2017-12-22T19:19:03.462Z,427.87
2017-12-22T19:21:30.989Z,355.53
2017-12-22T19:23:58.577Z,253.83
2017-12-22T19:26:26.165Z,367.50
2017-12-22T19:28:54.139Z,127.20
2017-12-22T19:31:21.702Z,116.03
2017-12-22T19:33:49.311Z,290.23
2017-12-22T19:36:16.901Z,219.30
2017-12-22T19:38:44.529Z,156.33
2017-12-22T19:41:12.065Z,228.67
2017-12-22T19:43:39.630Z,244.77
2017-12-22T19:46:07.230Z,137.10
2017-12-22T19:48:34.756Z,252.07
2017-12-22T19:51:02.331Z,188.70
2017-12-22T19:53:29.871Z,198.47
2017-12-22T19:55:57.401Z,126.77
2017-12-22T19:58:25.430Z,181.83
2017-12-22T20:00:53.150Z,159.50
2017-12-22T20:03:27.902Z,169.93
2017-12-22T20:05:55.440Z,137.53
2017-12-22T20:08:22.980Z,111.73
2017-12-22T20:10:50.702Z,247.80
2017-12-22T20:13:18.264Z,184.97
2017-12-22T20:15:45.838Z,223.17
2017-12-22T20:18:13.425Z,128.13
2017-12-22T20:20:40.951Z,100.17
2017-12-22T20:23:08.683Z,89.50
2017-12-22T20:25:36.256Z,96.13
2017-12-22T20:28:03.848Z,307.57
2017-12-22T20:30:31.478Z,140.90
2017-12-22T20:32:59.073Z,154.00
2017-12-22T20:35:26.628Z,123.97
2017-12-22T20:37:54.229Z,352.20
2017-12-22T20:40:21.822Z,239.77
2017-12-22T20:42:49.432Z,217.40
2017-12-22T20:45:17.030Z,117.67
2017-12-22T20:47:45.021Z,317.83
2017-12-22T20:50:12.619Z,172.80
2017-12-22T20:52:40.206Z,316.10
2017-12-22T20:55:07.859Z,177.63
2017-12-22T20:57:35.445Z,314.37
2017-12-22T21:00:03.109Z,260.40
2017-12-22T21:02:30.740Z,214.87
2017-12-22T21:04:58.310Z,282.50
2017-12-22T21:07:25.922Z,348.93
2017-12-22T21:09:53.476Z,342.03
2017-12-22T21:12:21.005Z,447.77
2017-12-22T21:14:48.613Z,244.53
2017-12-22T21:17:16.299Z,369.93
2017-12-22T21:19:44.047Z,472.10
2017-12-22T21:22:11.631Z,357.37
2017-12-22T21:24:39.309Z,246.33
2017-12-22T21:27:06.995Z,433.97
2017-12-22T21:29:34.689Z,221.73
2017-12-22T21:32:02.270Z,329.47
2017-12-22T21:34:29.796Z,233.50
2017-12-22T21:36:57.348Z,282.67
2017-12-22T21:39:25.353Z,278.70
2017-12-22T21:41:52.867Z,237.87
2017-12-22T21:44:20.389Z,236.87
2017-12-22T21:46:48.332Z,167.20
2017-12-22T21:49:15.902Z,237.80
2017-12-22T21:51:43.461Z,175.00
2017-12-22T21:54:11.203Z,188.87
2017-12-22T21:56:38.762Z,364.60
2017-12-22T21:59:06.320Z,424.93
2017-12-22T22:01:33.920Z,205.13
2017-12-22T22:04:01.443Z,186.30
2017-12-22T22:06:29.025Z,232.70
2017-12-22T22:08:56.565Z,261.97
2017-12-22T22:11:24.125Z,131.63
2017-12-22T22:13:51.672Z,264.37
2017-12-22T22:16:19.184Z,149.93
2017-12-22T22:18:47.123Z,166.67
2017-12-22T22:21:14.722Z,155.73
2017-12-22T22:23:42.285Z,232.37
2017-12-22T22:26:09.879Z,292.13
2017-12-22T22:28:37.462Z,188.43
2017-12-22T22:31:05.050Z,197.87
2017-12-22T22:33:32.580Z,185.60
2017-12-22T22:36:00.533Z,226.37
2017-12-22T22:38:28.089Z,182.97
2017-12-22T22:40:55.658Z,321.67
2017-12-22T22:43:23.317Z,195.90
2017-12-22T22:45:50.920Z,240.37
2017-12-22T22:48:18.492Z,206.53
2017-12-22T22:50:46.095Z,325.30
2017-12-22T22:53:13.820Z,296.23
2017-12-22T22:55:41.372Z,211.90
2017-12-22T22:58:08.926Z,267.53
2017-12-22T23:00:36.532Z,275.90
2017-12-22T23:03:04.103Z,371.00
2017-12-22T23:05:32.126Z,112.23
2017-12-22T23:07:59.696Z,297.80
2017-12-22T23:10:27.264Z,239.10
2017-12-22T23:12:55.016Z,321.43
2017-12-22T23:15:22.557Z,222.93
2017-12-22T23:17:50.096Z,163.03
2017-12-22T23:20:17.938Z,284.43
2017-12-22T23:22:45.507Z,326.27
2017-12-22T23:25:13.081Z,282.07
2017-12-22T23:27:40.655Z,289.13
2017-12-22T23:30:08.225Z,255.97
2017-12-22T23:32:36.095Z,242.40
2017-12-22T23:35:03.620Z,218.87
2017-12-22T23:37:31.175Z,236.13
2017-12-22T23:39:59.219Z,293.17
2017-12-22T23:42:26.796Z,214.87
2017-12-22T23:44:54.328Z,170.63
2017-12-22T23:47:21.952Z,310.50
2017-12-22T23:49:49.481Z,345.03
2017-12-22T23:52:17.861Z,288.60
2017-12-22T23:54:45.430Z,198.73
2017-12-22T23:57:13.036Z,343.30
2017-12-22T23:59:40.620Z,283.97
